Time;durP1;ratioP1;P1;durP2;ratioP2;P2;SDS_P1;SDS_P2;PMS_P1;PMS_P2;Temp;Humidity;BMP_temperature;BMP_pressure;BME280_temperature;BME280_humidity;BME280_pressure;Samples;Min_cycle;Max_cycle;Signal;HPM_P1;HPM_P2
2024/04/18 00:00:55;;;;;;;3.47;2.53;;;23.70;52.00;;;;;;6673759;26;79101;-56
2024/04/18 00:03:56;;;;;;;5.88;2.80;;;23.60;51.30;;;;;;6714366;25;79582;-56
2024/04/18 00:06:56;;;;;;;4.03;2.60;;;23.70;51.20;;;;;;6713832;25;81723;-62
2024/04/18 00:09:57;;;;;;;3.45;2.40;;;23.60;51.20;;;;;;6705706;25;78864;-60
2024/04/18 00:13:05;;;;;;;4.40;2.28;;;23.60;51.10;;;;;;6676297;26;80050;-61
2024/04/18 00:16:25;;;;;;;3.47;2.78;;;23.60;51.30;;;;;;6681944;26;79849;-60
2024/04/18 00:19:26;;;;;;;4.28;2.40;;;23.60;51.50;;;;;;6670450;26;80846;-60
2024/04/18 00:22:29;;;;;;;5.03;2.78;;;23.60;51.30;;;;;;6702072;25;79172;-60
2024/04/18 00:25:36;;;;;;;3.63;2.00;;;23.60;50.50;;;;;;6711547;25;79865;-60
2024/04/18 00:28:56;;;;;;;2.92;2.40;;;23.80;63.70;;;;;;6713698;25;80668;-59
2024/04/18 00:31:57;;;;;;;4.65;2.95;;;23.60;51.00;;;;;;6705128;26;80939;-60
2024/04/18 00:35:09;;;;;;;4.80;2.75;;;24.10;50.80;;;;;;6696353;26;81984;-60
2024/04/18 00:38:10;;;;;;;4.45;3.08;;;23.60;50.60;;;;;;6669759;26;82851;-60
2024/04/18 00:41:16;;;;;;;6.95;3.25;;;23.60;50.10;;;;;;6669628;26;79021;-62
2024/04/18 00:44:31;;;;;;;3.63;2.80;;;23.60;50.60;;;;;;6689274;25;79927;-61
2024/04/18 00:47:46;;;;;;;4.73;2.90;;;23.60;50.20;;;;;;6670149;26;82316;-61
2024/04/18 00:50:47;;;;;;;6.25;3.30;;;23.20;64.70;;;;;;6708533;25;79157;-60
2024/04/18 00:53:53;;;;;;;4.57;3.22;;;23.60;50.40;;;;;;6669803;26;79983;-61
2024/04/18 00:57:00;;;;;;;6.30;3.50;;;23.60;50.60;;;;;;6670369;26;78848;-61
2024/04/18 01:00:00;;;;;;;4.95;2.92;;;23.60;50.50;;;;;;6671445;26;79321;-61
2024/04/18 01:03:01;;;;;;;5.05;3.13;;;23.60;50.20;;;;;;6702881;25;80484;-61
2024/04/18 01:06:08;;;;;;;4.70;2.80;;;23.60;50.70;;;;;;6711767;25;84240;-62
2024/04/18 01:09:27;;;;;;;6.38;3.25;;;23.60;50.50;;;;;;6711515;25;79560;-61
2024/04/18 01:12:42;;;;;;;5.93;3.10;;;23.60;50.70;;;;;;6693628;25;78969;-61
2024/04/18 01:15:43;;;;;;;5.30;3.00;;;23.60;50.60;;;;;;6691755;26;78955;-62
2024/04/18 01:18:43;;;;;;;5.50;3.38;;;23.60;50.60;;;;;;6691250;25;78778;-62
2024/04/18 01:21:50;;;;;;;4.40;3.38;;;23.60;50.00;;;;;;6712639;25;79092;-61
2024/04/18 01:24:50;;;;;;;6.20;3.63;;;23.60;50.50;;;;;;6668778;26;79207;-61
2024/04/18 01:27:51;;;;;;;5.63;3.60;;;23.60;50.40;;;;;;6669499;26;79251;-62
2024/04/18 01:30:51;;;;;;;5.53;3.60;;;23.60;50.60;;;;;;6683265;25;79624;-61
2024/04/18 01:33:52;;;;;;;6.13;3.80;;;23.60;50.50;;;;;;6674616;26;79544;-62
2024/04/18 01:36:52;;;;;;;4.72;3.42;;;23.60;50.20;;;;;;6666288;25;81031;-61
2024/04/18 01:40:02;;;;;;;6.15;4.03;;;23.60;49.80;;;;;;6669630;26;78859;-61
2024/04/18 01:43:03;;;;;;;6.43;3.53;;;23.60;49.60;;;;;;6670002;26;78786;-60
2024/04/18 01:46:03;;;;;;;5.53;4.22;;;23.50;50.00;;;;;;6687345;25;80859;-61
2024/04/18 01:49:03;;;;;;;5.72;3.70;;;23.50;49.90;;;;;;6670830;26;80861;-61
2024/04/18 01:52:23;;;;;;;6.90;4.28;;;23.60;49.90;;;;;;6671818;26;81488;-61
2024/04/18 01:55:23;;;;;;;6.38;4.20;;;23.60;50.00;;;;;;6671041;25;80051;-49
2024/04/18 01:58:24;;;;;;;5.45;3.33;;;23.60;49.80;;;;;;6671109;26;79389;-51
2024/04/18 02:01:29;;;;;;;5.95;4.03;;;23.60;49.60;;;;;;6670542;26;78986;-52
2024/04/18 02:04:29;;;;;;;6.75;3.92;;;23.60;49.40;;;;;;6693847;25;78798;-53
2024/04/18 02:07:30;;;;;;;6.80;4.18;;;23.60;49.80;;;;;;6666886;26;78978;-49
2024/04/18 02:10:36;;;;;;;8.38;4.35;;;23.60;48.80;;;;;;6666770;26;79017;-55
2024/04/18 02:13:37;;;;;;;6.03;3.80;;;23.60;49.30;;;;;;6682957;26;79049;-49
2024/04/18 02:16:37;;;;;;;6.53;4.10;;;23.60;48.70;;;;;;6677094;25;83817;-49
2024/04/18 02:19:56;;;;;;;7.03;4.35;;;23.60;48.90;;;;;;6705015;25;81310;-52
2024/04/18 02:23:15;;;;;;;7.93;4.30;;;23.60;49.30;;;;;;6690833;25;80218;-50
2024/04/18 02:26:25;;;;;;;7.32;3.67;;;23.00;64.20;;;;;;6690079;26;79615;-49
2024/04/18 02:29:25;;;;;;;7.00;4.53;;;23.50;49.10;;;;;;6667805;26;78747;-48
2024/04/18 02:32:32;;;;;;;27.52;4.57;;;23.60;49.00;;;;;;6667874;26;80273;-56
2024/04/18 02:35:33;;;;;;;6.82;4.22;;;23.60;49.00;;;;;;6700910;25;79094;-52
2024/04/18 02:38:34;;;;;;;7.10;4.60;;;23.60;49.20;;;;;;6709666;25;80359;-47
2024/04/18 02:41:34;;;;;;;6.65;4.50;;;23.50;48.60;;;;;;6709721;25;79858;-51
2024/04/18 02:44:55;;;;;;;6.13;3.80;;;23.60;54.00;;;;;;6704845;26;83670;-52
2024/04/18 02:47:56;;;;;;;10.07;4.85;;;23.50;48.70;;;;;;6710675;25;79424;-48
2024/04/18 02:51:15;;;;;;;5.93;4.13;;;23.50;49.00;;;;;;6694095;25;83875;-60
2024/04/18 02:54:15;;;;;;;7.47;4.63;;;23.50;48.90;;;;;;6714057;25;79157;-61
2024/04/18 02:57:16;;;;;;;8.45;4.28;;;23.40;56.40;;;;;;6714113;25;82195;-61
2024/04/18 03:00:17;;;;;;;8.38;5.07;;;;;;;;;;6711589;25;79312;-61
2024/04/18 03:03:37;;;;;;;8.27;5.05;;;23.90;66.30;;;;;;6713638;25;80747;-61
2024/04/18 03:06:38;;;;;;;8.73;4.90;;;;;;;;;;6703055;25;79159;-61
2024/04/18 03:09:44;;;;;;;12.27;4.93;;;23.50;48.40;;;;;;6685321;26;78462;-58
2024/04/18 03:12:59;;;;;;;11.38;5.20;;;23.50;48.90;;;;;;6698681;26;80251;-58
2024/04/18 03:16:18;;;;;;;7.82;4.05;;;22.90;57.70;;;;;;6686827;25;78894;-57
2024/04/18 03:19:18;;;;;;;6.20;4.00;;;23.90;48.80;;;;;;6703299;25;78991;-59
2024/04/18 03:22:28;;;;;;;7.30;4.28;;;23.60;48.60;;;;;;6701347;25;80820;-60
2024/04/18 03:25:31;;;;;;;8.68;4.68;;;23.40;48.60;;;;;;6707054;25;80199;-60
2024/04/18 03:28:38;;;;;;;6.43;3.90;;;23.60;48.50;;;;;;6715212;25;79298;-65
2024/04/18 03:31:38;;;;;;;7.88;4.10;;;22.80;54.30;;;;;;6681848;26;79039;-64
2024/04/18 03:34:39;;;;;;;9.27;4.95;;;23.70;48.90;;;;;;6669723;26;79895;-67
2024/04/18 03:37:39;;;;;;;8.07;4.75;;;23.00;58.20;;;;;;6693293;25;78896;-65
2024/04/18 03:40:58;;;;;;;7.75;4.75;;;23.30;48.60;;;;;;6709267;25;80432;-62
2024/04/18 03:43:59;;;;;;;7.63;5.25;;;23.40;48.60;;;;;;6670839;26;79693;-60
2024/04/18 03:46:59;;;;;;;7.63;5.03;;;23.40;48.40;;;;;;6669499;26;79176;-60
2024/04/18 03:50:09;;;;;;;8.27;5.05;;;23.50;57.10;;;;;;6695378;25;79610;-59
2024/04/18 03:53:12;;;;;;;11.23;4.82;;;23.30;48.10;;;;;;6672392;26;78991;-61
2024/04/18 03:56:12;;;;;;;8.52;4.90;;;23.30;67.80;;;;;;6685820;26;81524;-61
2024/04/18 03:59:13;;;;;;;8.98;5.82;;;23.30;48.70;;;;;;6690896;25;80001;-59
2024/04/18 04:02:13;;;;;;;7.88;5.22;;;23.30;48.10;;;;;;6681882;25;79063;-58
2024/04/18 04:05:14;;;;;;;9.25;5.30;;;23.30;48.10;;;;;;6699712;25;83246;-58
2024/04/18 04:08:15;;;;;;;10.25;5.28;;;23.30;48.60;;;;;;6700240;26;79079;-58
2024/04/18 04:11:15;;;;;;;11.70;5.22;;;23.30;49.00;;;;;;6705431;25;79499;-58
2024/04/18 04:14:16;;;;;;;9.48;5.78;;;23.30;48.80;;;;;;6710369;25;79456;-59
2024/04/18 04:17:28;;;;;;;10.32;5.95;;;22.50;72.20;;;;;;6673957;26;78766;-58
2024/04/18 04:20:39;;;;;;;12.05;6.45;;;23.40;50.10;;;;;;6674989;26;81942;-58
2024/04/18 04:23:39;;;;;;;13.88;6.03;;;23.40;49.50;;;;;;6698547;25;79135;-58
2024/04/18 04:26:40;;;;;;;8.45;5.20;;;23.40;50.20;;;;;;6663171;25;85376;-59
2024/04/18 04:29:41;;;;;;;13.30;6.28;;;23.40;50.60;;;;;;6679098;25;80531;-60
2024/04/18 04:32:41;;;;;;;10.32;6.53;;;23.40;51.20;;;;;;6661029;26;83707;-62
2024/04/18 04:36:00;;;;;;;16.65;6.40;;;23.10;70.90;;;;;;6692494;25;79747;-59
2024/04/18 04:39:01;;;;;;;11.18;5.57;;;23.70;62.50;;;;;;6696357;25;79000;-60
2024/04/18 04:42:22;;;;;;;16.67;6.28;;;23.60;50.90;;;;;;6684455;26;84573;-57
2024/04/18 04:45:22;;;;;;;15.48;6.57;;;23.40;51.30;;;;;;6702001;25;79532;-58
2024/04/18 04:48:38;;;;;;;15.45;6.25;;;23.40;50.80;;;;;;6677498;25;79100;-59
2024/04/18 04:51:44;;;;;;;16.33;6.93;;;23.40;50.30;;;;;;6702364;25;78996;-58
2024/04/18 04:54:46;;;;;;;19.02;7.93;;;23.30;50.10;;;;;;6706321;25;79261;-58
2024/04/18 04:57:47;;;;;;;11.30;6.70;;;23.30;49.80;;;;;;6694955;25;79463;-58
2024/04/18 05:00:56;;;;;;;13.43;6.93;;;23.30;49.70;;;;;;6686384;26;79313;-58
2024/04/18 05:04:09;;;;;;;16.45;7.05;;;23.30;49.40;;;;;;6695673;25;84754;-59
2024/04/18 05:07:10;;;;;;;13.68;6.70;;;23.40;49.60;;;;;;6705570;25;81224;-61
2024/04/18 05:10:10;;;;;;;12.95;7.75;;;23.40;49.40;;;;;;6688777;26;79248;-60
2024/04/18 05:13:11;;;;;;;13.85;7.25;;;23.40;49.00;;;;;;6714928;25;79820;-59
2024/04/18 05:16:11;;;;;;;12.45;7.28;;;23.50;48.20;;;;;;6700602;25;79135;-58
2024/04/18 05:19:12;;;;;;;14.40;7.65;;;23.50;48.80;;;;;;6675905;26;80140;-60
2024/04/18 05:22:12;;;;;;;10.50;7.35;;;23.60;48.20;;;;;;6679791;26;79324;-60
2024/04/18 05:25:13;;;;;;;12.50;7.05;;;23.60;48.20;;;;;;6681720;25;79166;-59
2024/04/18 05:28:20;;;;;;;11.63;7.40;;;23.50;48.70;;;;;;6688119;25;85170;-58
2024/04/18 05:31:20;;;;;;;15.15;7.55;;;23.60;48.60;;;;;;6699095;26;80413;-59
2024/04/18 05:34:21;;;;;;;14.27;7.63;;;23.60;48.50;;;;;;6693033;25;80031;-60
2024/04/18 05:37:21;;;;;;;13.07;7.82;;;23.50;48.50;;;;;;6714332;25;79239;-64
2024/04/18 05:40:22;;;;;;;9.65;6.47;;;23.60;48.10;;;;;;6691396;25;79750;-65
2024/04/18 05:43:24;;;;;;;17.38;7.60;;;23.60;48.40;;;;;;6687437;26;79215;-64
2024/04/18 05:46:24;;;;;;;11.52;6.78;;;23.60;48.30;;;;;;6691310;25;79230;-64
2024/04/18 05:49:25;;;;;;;11.70;6.28;;;23.60;48.40;;;;;;6702992;25;80427;-64
2024/04/18 05:52:25;;;;;;;13.73;7.75;;;23.60;48.40;;;;;;6697362;25;79483;-64
2024/04/18 05:55:26;;;;;;;13.18;7.80;;;23.60;47.50;;;;;;6692940;25;79967;-64
2024/04/18 05:58:28;;;;;;;11.95;6.57;;;23.60;47.60;;;;;;6717780;25;79651;-60
2024/04/18 06:01:29;;;;;;;10.82;7.32;;;23.60;48.10;;;;;;6685471;25;79653;-61
2024/04/18 06:04:29;;;;;;;14.77;7.15;;;23.60;48.00;;;;;;6685362;25;79041;-62
2024/04/18 06:07:48;;;;;;;10.93;5.80;;;23.60;48.00;;;;;;6675187;26;79266;-62
2024/04/18 06:10:49;;;;;;;11.90;5.85;;;23.70;48.50;;;;;;6699015;25;81762;-62
2024/04/18 06:13:52;;;;;;;9.85;6.10;;;23.60;48.20;;;;;;6686877;26;79546;-62
2024/04/18 06:16:53;;;;;;;11.30;6.10;;;23.70;48.10;;;;;;6687077;26;80034;-62
2024/04/18 06:20:13;;;;;;;9.70;5.07;;;23.70;48.10;;;;;;6687104;25;80205;-62
2024/04/18 06:23:14;;;;;;;9.73;4.97;;;23.60;48.30;;;;;;6689578;25;79470;-61
2024/04/18 06:26:15;;;;;;;10.30;5.82;;;23.60;53.20;;;;;;6699119;25;80511;-62
2024/04/18 06:29:16;;;;;;;7.55;5.15;;;23.60;48.20;;;;;;6686518;25;79229;-62
2024/04/18 06:32:16;;;;;;;9.50;5.10;;;23.50;57.00;;;;;;6694816;25;80269;-57
2024/04/18 06:35:17;;;;;;;7.40;4.95;;;23.60;48.30;;;;;;6671716;26;79173;-58
2024/04/18 06:38:17;;;;;;;8.30;5.43;;;23.60;47.50;;;;;;6693872;25;79074;-57
2024/04/18 06:41:18;;;;;;;7.55;5.47;;;23.60;47.50;;;;;;6685892;26;79020;-58
2024/04/18 06:44:18;;;;;;;10.85;5.78;;;23.60;48.00;;;;;;6703718;25;79023;-57
2024/04/18 06:50:15;;;;;;;4.93;3.50;;;23.60;47.40;;;;;;6694489;25;74904;-58
2024/04/18 06:53:15;;;;;;;8.43;4.80;;;24.20;50.90;;;;;;6645912;26;78911;-57
2024/04/18 06:56:16;;;;;;;7.28;5.07;;;23.50;47.20;;;;;;6647689;26;79791;-57
2024/04/18 06:59:16;;;;;;;7.05;4.57;;;23.60;47.70;;;;;;6639013;26;84565;-56
2024/04/18 07:02:17;;;;;;;19.27;6.13;;;23.70;46.90;;;;;;6640104;26;79637;-58
2024/04/18 07:05:37;;;;;;;13.13;5.50;;;24.10;58.80;;;;;;6599405;26;79546;-59
2024/04/18 07:08:56;;;;;;;9.30;6.05;;;23.80;64.20;;;;;;6575393;26;80524;-60
2024/04/18 07:12:15;;;;;;;13.35;5.80;;;23.80;46.70;;;;;;6569692;26;85316;-57
2024/04/18 07:15:15;;;;;;;10.35;5.53;;;23.80;47.20;;;;;;6567779;26;78554;-59
2024/04/18 07:18:16;;;;;;;11.43;5.45;;;23.80;46.80;;;;;;6583886;26;80491;-60
2024/04/18 07:21:16;;;;;;;7.82;4.97;;;23.80;47.30;;;;;;6573754;26;78534;-59
2024/04/18 07:24:18;;;;;;;10.15;5.68;;;23.80;47.50;;;;;;6582617;26;78745;-58
2024/04/18 07:27:18;;;;;;;8.45;5.10;;;23.80;47.20;;;;;;6605765;26;79757;-71
2024/04/18 07:30:19;;;;;;;8.25;5.43;;;23.80;47.40;;;;;;6604492;26;79747;-67
2024/04/18 07:33:22;;;;;;;8.95;5.72;;;23.90;47.70;;;;;;6579989;26;85188;-68
2024/04/18 07:36:23;;;;;;;9.80;4.47;;;24.00;47.40;;;;;;6575427;26;79403;-66
2024/04/18 07:39:24;;;;;;;18.13;6.05;;;24.00;47.80;;;;;;6570281;26;78950;-67
2024/04/18 07:42:25;;;;;;;13.32;6.00;;;24.00;47.90;;;;;;6591729;26;78935;-66
2024/04/18 07:45:25;;;;;;;13.65;6.38;;;24.00;48.20;;;;;;6602990;26;79263;-59
2024/04/18 07:48:26;;;;;;;12.35;5.85;;;24.00;48.30;;;;;;6591071;26;79389;-58
2024/04/18 07:51:26;;;;;;;13.85;6.10;;;24.10;48.10;;;;;;6603717;26;82151;-59
2024/04/18 07:54:27;;;;;;;11.60;5.63;;;24.10;48.60;;;;;;6603367;26;79058;-59
2024/04/18 07:57:27;;;;;;;13.65;5.13;;;24.10;49.00;;;;;;6599400;26;78804;-59
2024/04/18 08:00:28;;;;;;;17.42;4.53;;;24.10;49.40;;;;;;6588961;26;80388;-59
2024/04/18 08:03:28;;;;;;;9.18;4.95;;;24.10;49.50;;;;;;6576773;26;81720;-59
2024/04/18 08:06:29;;;;;;;13.20;5.03;;;24.10;49.80;;;;;;6579232;26;79145;-58
2024/04/18 08:09:29;;;;;;;13.57;4.63;;;24.10;50.90;;;;;;6560994;26;86352;-59
2024/04/18 08:12:30;;;;;;;8.82;4.22;;;24.50;57.10;;;;;;6569941;26;79397;-59
2024/04/18 08:15:30;;;;;;;10.52;3.63;;;24.10;52.30;;;;;;6562582;26;78804;-58
2024/04/18 08:18:31;;;;;;;16.85;4.25;;;24.10;52.90;;;;;;6578518;26;79254;-59
2024/04/18 08:21:31;;;;;;;8.93;4.18;;;24.30;59.20;;;;;;6550339;26;87178;-59
2024/04/18 08:24:35;;;;;;;8.10;4.13;;;24.10;53.90;;;;;;6549955;26;79301;-60
2024/04/18 08:27:41;;;;;;;9.02;3.85;;;24.00;54.30;;;;;;6563739;26;80581;-60
2024/04/18 08:30:42;;;;;;;9.02;4.18;;;24.10;53.40;;;;;;6579085;26;79572;-59
2024/04/18 08:33:42;;;;;;;8.93;4.00;;;24.10;54.00;;;;;;6582466;26;81404;-60
2024/04/18 08:36:43;;;;;;;8.45;3.63;;;24.20;52.70;;;;;;6584430;26;82687;-59
2024/04/18 08:39:43;;;;;;;8.15;4.07;;;24.20;53.30;;;;;;6546711;26;79473;-63
2024/04/18 08:42:44;;;;;;;7.90;3.50;;;24.20;52.10;;;;;;6552198;26;78994;-64
2024/04/18 08:45:44;;;;;;;7.35;3.25;;;24.20;52.20;;;;;;6574664;26;83547;-63
2024/04/18 08:48:45;;;;;;;7.85;3.40;;;24.20;52.90;;;;;;6579619;26;79912;-64
2024/04/18 08:51:45;;;;;;;7.47;3.15;;;24.10;52.80;;;;;;6592648;26;78965;-65
2024/04/18 08:54:46;;;;;;;8.40;3.10;;;24.10;52.80;;;;;;6585954;26;79144;-64
2024/04/18 08:57:46;;;;;;;5.55;3.08;;;24.00;51.70;;;;;;6578793;26;79403;-64
2024/04/18 09:00:47;;;;;;;6.70;2.70;;;23.90;50.90;;;;;;6577036;26;80059;-64
2024/04/18 09:03:47;;;;;;;6.28;3.03;;;23.80;50.60;;;;;;6566106;26;79462;-64
2024/04/18 09:06:48;;;;;;;6.25;3.88;;;23.70;50.20;;;;;;6549850;26;79272;-63
2024/04/18 09:09:53;;;;;;;7.28;4.15;;;23.70;50.50;;;;;;6558156;26;79483;-61
2024/04/18 09:12:53;;;;;;;8.43;5.40;;;23.70;49.90;;;;;;6573536;26;79210;-62
2024/04/18 09:15:54;;;;;;;11.52;6.13;;;23.60;49.20;;;;;;6560997;26;78764;-63
2024/04/18 09:18:54;;;;;;;11.73;5.85;;;23.60;48.50;;;;;;6578640;26;83185;-63
2024/04/18 09:21:55;;;;;;;10.23;6.50;;;23.60;48.10;;;;;;6586529;26;79123;-63
2024/04/18 09:24:55;;;;;;;11.68;7.50;;;23.50;47.70;;;;;;6562886;26;79218;-64
2024/04/18 09:27:56;;;;;;;14.38;8.38;;;23.50;47.30;;;;;;6573408;26;79072;-63
2024/04/18 09:30:56;;;;;;;13.68;8.05;;;23.50;47.10;;;;;;6580205;26;80249;-63
2024/04/18 09:33:57;;;;;;;12.18;8.32;;;23.40;46.70;;;;;;6578902;26;78858;-64
2024/04/18 09:36:57;;;;;;;13.10;8.32;;;23.40;46.30;;;;;;6562889;26;79294;-63
2024/04/18 09:39:58;;;;;;;13.23;7.63;;;23.40;45.80;;;;;;6566093;26;78895;-63
2024/04/18 09:42:59;;;;;;;15.38;7.70;;;23.40;46.10;;;;;;6575133;26;79450;-63
2024/04/18 09:45:59;;;;;;;14.32;8.50;;;23.40;45.50;;;;;;6576380;26;78933;-64
2024/04/18 09:49:00;;;;;;;12.10;7.75;;;23.40;46.20;;;;;;6563495;26;79310;-65
2024/04/18 09:52:00;;;;;;;14.50;7.55;;;23.40;45.90;;;;;;6578950;26;80248;-63
2024/04/18 09:55:01;;;;;;;13.18;8.13;;;23.30;46.00;;;;;;6577988;26;79142;-60
2024/04/18 09:58:01;;;;;;;12.93;7.53;;;23.30;45.90;;;;;;6565772;26;79116;-60
2024/04/18 10:01:02;;;;;;;14.02;8.38;;;23.30;45.60;;;;;;6568579;26;79200;-60
2024/04/18 10:04:02;;;;;;;14.27;9.05;;;23.30;45.70;;;;;;6593911;26;79056;-60
2024/04/18 10:07:03;;;;;;;14.77;7.55;;;23.30;44.90;;;;;;6557217;26;79243;-59
2024/04/18 10:10:03;;;;;;;14.30;7.82;;;23.30;44.80;;;;;;6580714;26;79073;-60
2024/04/18 10:13:04;;;;;;;11.93;7.88;;;23.40;44.10;;;;;;6554201;26;79138;-61
2024/04/18 10:16:04;;;;;;;13.55;8.05;;;23.30;44.40;;;;;;6566418;26;78442;-60
2024/04/18 10:19:05;;;;;;;12.27;7.68;;;23.20;67.70;;;;;;6548262;26;78826;-62
2024/04/18 10:22:06;;;;;;;14.98;7.20;;;23.40;44.00;;;;;;6565192;26;80299;-60
2024/04/18 10:25:07;;;;;;;14.05;7.43;;;23.60;44.10;;;;;;6557907;26;81666;-59
2024/04/18 10:28:07;;;;;;;11.63;7.25;;;23.30;43.40;;;;;;6558460;26;79735;-60
2024/04/18 10:31:08;;;;;;;11.52;6.90;;;23.30;43.20;;;;;;6538633;26;81918;-60
2024/04/18 10:34:08;;;;;;;12.13;6.05;;;23.40;43.70;;;;;;6586172;26;79399;-60
2024/04/18 10:37:09;;;;;;;13.55;5.97;;;23.40;44.00;;;;;;6539577;26;80597;-59
2024/04/18 10:40:09;;;;;;;12.45;6.38;;;23.40;44.00;;;;;;6541546;26;78832;-60
2024/04/18 10:43:10;;;;;;;11.02;5.53;;;23.40;44.10;;;;;;6576517;26;78931;-64
2024/04/18 10:46:11;;;;;;;11.05;5.32;;;23.40;44.30;;;;;;6583237;26;79705;-60
2024/04/18 10:49:12;;;;;;;13.13;5.00;;;23.50;44.00;;;;;;6582218;26;79760;-60
2024/04/18 10:52:12;;;;;;;9.15;5.18;;;23.40;44.50;;;;;;6582466;26;79124;-61
2024/04/18 10:55:13;;;;;;;10.40;5.07;;;23.50;44.60;;;;;;6578194;26;82146;-61
2024/04/18 10:58:17;;;;;;;8.55;4.63;;;23.50;44.80;;;;;;6575736;26;78922;-61
2024/04/18 11:01:18;;;;;;;8.73;4.82;;;23.50;44.90;;;;;;6582136;26;78939;-61
2024/04/18 11:04:19;;;;;;;9.75;4.80;;;23.50;44.90;;;;;;6578354;26;78795;-60
2024/04/18 11:07:19;;;;;;;15.25;5.13;;;23.50;45.00;;;;;;6578872;26;83187;-66
2024/04/18 11:10:19;;;;;;;11.93;4.00;;;23.50;45.10;;;;;;6570162;26;79772;-72
2024/04/18 11:13:20;;;;;;;8.38;3.38;;;23.60;44.60;;;;;;6581726;26;81709;-72
2024/04/18 11:16:21;;;;;;;6.55;3.55;;;23.70;44.50;;;;;;6580899;26;78711;-72
2024/04/18 11:19:21;;;;;;;5.10;2.90;;;23.70;44.70;;;;;;6580826;26;80330;-69
2024/04/18 11:22:22;;;;;;;8.20;3.13;;;23.70;45.10;;;;;;6579649;26;79014;-72
2024/04/18 11:25:22;;;;;;;7.07;3.00;;;23.70;45.20;;;;;;6568519;26;80648;-70
2024/04/18 11:28:35;;;;;;;5.03;2.67;;;23.80;45.40;;;;;;6581263;26;80318;-69
2024/04/18 11:31:35;;;;;;;5.45;2.67;;;23.80;45.70;;;;;;6583328;26;79306;-68
2024/04/18 11:34:37;;;;;;;3.83;2.42;;;23.80;45.30;;;;;;6588122;26;78611;-68
2024/04/18 11:37:37;;;;;;;8.95;2.05;;;23.80;45.50;;;;;;6589153;26;80256;-66
2024/04/18 11:40:38;;;;;;;3.85;2.15;;;23.80;45.10;;;;;;6581011;26;80120;-66
2024/04/18 11:43:39;;;;;;;3.33;1.92;;;23.80;44.60;;;;;;6582491;26;79550;-67
2024/04/18 11:46:39;;;;;;;2.58;1.88;;;23.80;44.20;;;;;;6584422;26;79366;-66
2024/04/18 11:49:42;;;;;;;2.55;1.65;;;23.80;43.70;;;;;;6583335;26;79247;-65
2024/04/18 11:52:42;;;;;;;3.55;2.13;;;23.80;43.40;;;;;;6558909;26;83277;-64
2024/04/18 11:55:43;;;;;;;3.58;1.85;;;23.70;42.30;;;;;;6561566;26;83726;-62
2024/04/18 11:59:02;;;;;;;2.92;2.08;;;23.70;41.80;;;;;;6572555;26;79200;-63
2024/04/18 12:02:06;;;;;;;2.88;1.95;;;23.70;41.70;;;;;;6576502;26;80406;-57
2024/04/18 12:05:24;;;;;;;2.83;1.80;;;23.70;42.10;;;;;;6555241;26;80087;-57
2024/04/18 12:08:25;;;;;;;8.02;2.78;;;23.70;42.70;;;;;;6536199;26;79012;-55
2024/04/18 12:11:25;;;;;;;2.10;1.30;;;23.60;42.80;;;;;;6569439;26;79389;-56
2024/04/18 12:14:46;;;;;;;3.08;1.38;;;23.70;43.10;;;;;;6566424;26;80005;-57
2024/04/18 12:17:59;;;;;;;1.73;1.40;;;24.60;57.90;;;;;;6565609;26;80104;-57
2024/04/18 12:20:59;;;;;;;3.35;1.58;;;23.70;42.80;;;;;;6572291;26;78873;-57
2024/04/18 12:24:09;;;;;;;3.72;2.10;;;23.70;43.60;;;;;;6570751;26;84463;-57
2024/04/18 12:27:09;;;;;;;4.35;1.67;;;23.60;43.50;;;;;;6561580;26;78989;-56
2024/04/18 12:30:27;;;;;;;3.28;1.70;;;23.60;43.20;;;;;;6575017;26;80185;-56
2024/04/18 12:33:47;;;;;;;2.65;1.75;;;23.60;43.80;;;;;;6571323;26;79166;-55
2024/04/18 12:36:48;;;;;;;3.90;1.65;;;23.60;43.80;;;;;;6550747;26;78801;-55
2024/04/18 12:39:48;;;;;;;4.35;1.40;;;23.60;44.00;;;;;;6558378;26;79074;-57
2024/04/18 12:42:58;;;;;;;4.18;1.58;;;23.60;44.10;;;;;;6556852;26;80584;-54
2024/04/18 12:46:00;;;;;;;7.38;1.60;;;23.60;44.10;;;;;;6540429;26;78978;-55
2024/04/18 12:49:19;;;;;;;4.60;1.88;;;23.60;44.20;;;;;;6551978;26;79995;-57
2024/04/18 12:52:19;;;;;;;4.25;1.50;;;23.60;43.60;;;;;;6556632;26;80916;-56
2024/04/18 12:55:20;;;;;;;2.80;1.60;;;23.60;44.10;;;;;;6538137;26;78857;-57
2024/04/18 12:58:20;;;;;;;1.90;1.42;;;23.70;44.10;;;;;;6548180;26;80242;-62
2024/04/18 13:01:40;;;;;;;2.38;1.63;;;23.70;44.20;;;;;;6550682;26;85161;-61
2024/04/18 13:04:52;;;;;;;7.03;2.00;;;23.70;43.80;;;;;;6564150;26;80011;-61
2024/04/18 13:07:55;;;;;;;2.17;1.58;;;23.70;43.80;;;;;;6561361;26;79340;-62
2024/04/18 13:10:56;;;;;;;6.38;1.95;;;23.70;43.90;;;;;;6574855;26;78609;-61
2024/04/18 13:13:57;;;;;;;6.50;1.80;;;23.70;44.50;;;;;;6576149;26;80402;-63
2024/04/18 13:16:57;;;;;;;5.28;2.10;;;23.70;44.00;;;;;;6575473;26;81620;-61
2024/04/18 13:33:41;;;;;;;5.15;2.20;;;23.70;44.00;;;;;;8353211;20;1346745;-59
2024/04/18 13:36:41;;;;;;;6.13;1.77;;;23.70;46.40;;;;;;8196472;21;80973;-59
2024/04/18 13:39:44;;;;;;;3.30;1.40;;;23.80;46.20;;;;;;8199725;21;79005;-58
2024/04/18 13:42:45;;;;;;;5.80;2.13;;;23.80;46.30;;;;;;8198537;21;78800;-59
2024/04/18 13:46:01;;;;;;;;;;;23.90;46.20;;;;;;8191788;21;79938;-59
2024/04/18 13:49:02;;;;;;;3.90;1.50;;;24.00;46.20;;;;;;8202014;21;78823;-58
2024/04/18 13:52:02;;;;;;;7.00;1.75;;;24.10;46.10;;;;;;8191876;21;78584;-55
2024/04/18 13:55:05;;;;;;;5.20;2.00;;;24.10;46.00;;;;;;8198157;21;78887;-57
2024/04/18 13:58:06;;;;;;;2.13;1.50;;;24.20;45.90;;;;;;8196948;21;79841;-55
2024/04/18 14:01:26;;;;;;;3.10;1.50;;;24.20;46.00;;;;;;8197521;21;79531;-55
2024/04/18 14:04:35;;;;;;;2.53;1.58;;;24.20;45.90;;;;;;8197761;21;78948;-55
2024/04/18 14:07:53;;;;;;;5.47;1.70;;;24.20;46.00;;;;;;8195565;21;78925;-54
2024/04/18 14:11:16;;;;;;;6.55;1.77;;;24.20;45.70;;;;;;8198572;21;80375;-59
2024/04/18 14:14:34;;;;;;;4.05;1.70;;;24.30;45.90;;;;;;8195650;21;80321;-60
2024/04/18 14:21:29;;;;;;;4.13;1.67;;;24.30;46.00;;;;;;8195634;21;79764;-58
2024/04/18 14:24:30;;;;;;;3.88;1.50;;;24.20;46.20;;;;;;8199055;21;78906;-57
2024/04/18 14:27:30;;;;;;;3.85;1.50;;;24.30;46.30;;;;;;8198622;21;79260;-56
2024/04/18 14:30:34;;;;;;;3.40;1.73;;;24.30;46.40;;;;;;8199337;21;79101;-59
2024/04/18 14:33:52;;;;;;;5.72;1.95;;;24.20;46.40;;;;;;8237259;21;78954;-58
2024/04/18 14:36:53;;;;;;;4.75;1.85;;;24.30;46.50;;;;;;8255549;21;78652;-58
2024/04/18 14:39:53;;;;;;;4.03;1.70;;;24.30;46.50;;;;;;8255984;21;78669;-58
2024/04/18 14:42:54;;;;;;;2.85;1.60;;;24.30;46.50;;;;;;8254458;21;79178;-59
2024/04/18 14:45:55;;;;;;;1.95;1.42;;;24.20;46.50;;;;;;8255372;21;78942;-58
2024/04/18 14:49:01;;;;;;;3.42;2.20;;;24.30;46.60;;;;;;8253242;21;79017;-56
2024/04/18 14:52:02;;;;;;;2.75;1.65;;;24.20;46.60;;;;;;8252915;21;79262;-57
2024/04/18 14:55:02;;;;;;;2.50;1.75;;;24.20;47.30;;;;;;8254543;21;79700;-55
2024/04/18 14:58:06;;;;;;;6.65;2.15;;;24.20;46.80;;;;;;8251939;21;79273;-57
2024/04/18 15:01:21;;;;;;;9.57;1.95;;;24.20;46.60;;;;;;8253020;21;79134;-56
2024/04/18 15:04:22;;;;;;;2.30;1.60;;;24.20;46.70;;;;;;8251904;21;79202;-54
2024/04/18 15:07:41;;;;;;;3.45;1.65;;;24.20;46.70;;;;;;8245683;21;80107;-56
2024/04/18 15:10:51;;;;;;;7.93;1.88;;;24.10;46.50;;;;;;8250034;21;79531;-56
2024/04/18 15:13:51;;;;;;;7.95;1.75;;;24.10;46.60;;;;;;8250929;21;79823;-54
2024/04/18 15:17:01;;;;;;;5.38;2.08;;;24.20;46.60;;;;;;8252061;21;78362;-55
2024/04/18 15:20:03;;;;;;;3.05;1.58;;;24.10;46.60;;;;;;8251699;21;78689;-58
2024/04/18 15:23:10;;;;;;;6.57;1.77;;;24.10;46.50;;;;;;8251865;21;78808;-55
2024/04/18 15:26:12;;;;;;;2.67;1.92;;;24.10;46.40;;;;;;8250585;21;79162;-59
2024/04/18 15:29:12;;;;;;;3.05;1.77;;;24.10;46.30;;;;;;8235058;21;78761;-60
2024/04/18 15:32:31;;;;;;;2.15;1.55;;;24.10;46.10;;;;;;8244151;21;78816;-61
2024/04/18 15:35:51;;;;;;;3.10;1.75;;;24.10;46.10;;;;;;8244498;21;78964;-61
2024/04/18 15:38:52;;;;;;;3.17;1.50;;;24.10;46.00;;;;;;8248295;21;79660;-58
2024/04/18 15:41:52;;;;;;;7.63;1.75;;;24.10;46.10;;;;;;8252121;21;78844;-59
2024/04/18 15:45:13;;;;;;;3.00;1.80;;;24.00;46.00;;;;;;8208593;21;84722;-59
2024/04/18 15:48:18;;;;;;;2.83;1.30;;;24.00;46.40;;;;;;8249574;21;80105;-64
2024/04/18 15:51:27;;;;;;;2.28;1.40;;;24.00;46.50;;;;;;8253279;21;79000;-59
2024/04/18 15:54:40;;;;;;;6.88;1.88;;;23.90;46.20;;;;;;8251159;21;79110;-59
2024/04/18 15:57:40;;;;;;;3.38;1.23;;;23.80;45.30;;;;;;8241726;21;81047;-65
2024/04/18 16:13:59;;;;;;;4.90;1.60;;;23.70;45.70;;;;;;6729130;25;75665;-58
2024/04/18 16:16:59;;;;;;;2.58;1.27;;;23.80;45.60;;;;;;6685101;25;79132;-58
2024/04/18 16:20:12;;;;;;;2.72;1.17;;;23.80;45.10;;;;;;6681790;25;79232;-59
2024/04/18 16:23:12;;;;;;;5.47;1.00;;;23.80;45.60;;;;;;6665902;25;79714;-60
2024/04/18 16:26:13;;;;;;;5.43;1.73;;;23.80;45.00;;;;;;6678313;25;79153;-57
2024/04/18 16:29:14;;;;;;;1.80;1.05;;;23.70;42.80;;;;;;6684215;25;79466;-54